sensor_id;sensor_type;location;lat;lon;timestamp;P1;durP1;ratioP1;P2;durP2;ratioP2
50086;SDS011;35967;50.718;7.050;2024-02-21T00:06:14;17.80;;;4.33;;
50086;SDS011;35967;50.718;7.050;2024-02-21T00:16:17;17.27;;;4.80;;
50086;SDS011;35967;50.718;7.050;2024-02-21T00:26:22;17.13;;;4.23;;
50086;SDS011;35967;50.718;7.050;2024-02-21T00:36:25;18.77;;;4.57;;
50086;SDS011;35967;50.718;7.050;2024-02-21T00:46:30;13.83;;;3.20;;
50086;SDS011;35967;50.718;7.050;2024-02-21T00:56:32;10.53;;;3.33;;
50086;SDS011;35967;50.718;7.050;2024-02-21T01:06:37;17.77;;;3.93;;
50086;SDS011;35967;50.718;7.050;2024-02-21T01:16:40;13.90;;;3.47;;
50086;SDS011;35967;50.718;7.050;2024-02-21T01:26:45;16.17;;;3.43;;
50086;SDS011;35967;50.718;7.050;2024-02-21T01:36:48;10.27;;;4.40;;
50086;SDS011;35967;50.718;7.050;2024-02-21T01:46:53;14.47;;;3.57;;
50086;SDS011;35967;50.718;7.050;2024-02-21T01:56:56;17.33;;;3.83;;
50086;SDS011;35967;50.718;7.050;2024-02-21T02:07:01;11.57;;;2.87;;
50086;SDS011;35967;50.718;7.050;2024-02-21T02:17:06;15.00;;;3.20;;
50086;SDS011;35967;50.718;7.050;2024-02-21T02:27:12;20.00;;;3.40;;
50086;SDS011;35967;50.718;7.050;2024-02-21T02:37:15;9.80;;;3.10;;
50086;SDS011;35967;50.718;7.050;2024-02-21T02:47:19;10.53;;;2.77;;
50086;SDS011;35967;50.718;7.050;2024-02-21T02:57:22;16.17;;;2.90;;
50086;SDS011;35967;50.718;7.050;2024-02-21T03:07:27;12.93;;;2.77;;
50086;SDS011;35967;50.718;7.050;2024-02-21T03:17:30;16.80;;;2.77;;
50086;SDS011;35967;50.718;7.050;2024-02-21T03:27:35;16.30;;;2.97;;
50086;SDS011;35967;50.718;7.050;2024-02-21T03:37:39;12.13;;;2.63;;
50086;SDS011;35967;50.718;7.050;2024-02-21T03:47:43;13.63;;;2.90;;
50086;SDS011;35967;50.718;7.050;2024-02-21T03:57:46;10.73;;;2.43;;
50086;SDS011;35967;50.718;7.050;2024-02-21T04:07:51;12.50;;;2.60;;
50086;SDS011;35967;50.718;7.050;2024-02-21T04:17:54;11.43;;;2.17;;
50086;SDS011;35967;50.718;7.050;2024-02-21T04:27:59;10.43;;;2.33;;
50086;SDS011;35967;50.718;7.050;2024-02-21T04:38:02;12.43;;;2.03;;
50086;SDS011;35967;50.718;7.050;2024-02-21T04:48:07;13.90;;;3.57;;
50086;SDS011;35967;50.718;7.050;2024-02-21T04:58:10;8.33;;;2.33;;
50086;SDS011;35967;50.718;7.050;2024-02-21T05:08:15;11.93;;;2.77;;
50086;SDS011;35967;50.718;7.050;2024-02-21T05:18:18;12.93;;;2.77;;
50086;SDS011;35967;50.718;7.050;2024-02-21T05:28:23;12.03;;;2.73;;
50086;SDS011;35967;50.718;7.050;2024-02-21T05:38:26;13.37;;;2.40;;
50086;SDS011;35967;50.718;7.050;2024-02-21T05:48:30;13.03;;;3.03;;
50086;SDS011;35967;50.718;7.050;2024-02-21T05:58:39;11.87;;;1.90;;
50086;SDS011;35967;50.718;7.050;2024-02-21T06:08:44;10.40;;;2.07;;
50086;SDS011;35967;50.718;7.050;2024-02-21T06:18:47;13.27;;;2.60;;
50086;SDS011;35967;50.718;7.050;2024-02-21T06:28:51;10.73;;;2.57;;
50086;SDS011;35967;50.718;7.050;2024-02-21T06:38:54;15.40;;;2.97;;
50086;SDS011;35967;50.718;7.050;2024-02-21T06:48:59;19.10;;;2.63;;
50086;SDS011;35967;50.718;7.050;2024-02-21T06:59:03;14.37;;;2.63;;
50086;SDS011;35967;50.718;7.050;2024-02-21T07:09:08;14.67;;;3.00;;
50086;SDS011;35967;50.718;7.050;2024-02-21T07:19:11;12.77;;;2.87;;
50086;SDS011;35967;50.718;7.050;2024-02-21T07:29:15;14.93;;;3.10;;
50086;SDS011;35967;50.718;7.050;2024-02-21T07:39:19;19.50;;;4.13;;
50086;SDS011;35967;50.718;7.050;2024-02-21T07:49:24;18.53;;;4.30;;
50086;SDS011;35967;50.718;7.050;2024-02-21T07:59:29;14.83;;;3.40;;
50086;SDS011;35967;50.718;7.050;2024-02-21T08:09:33;10.93;;;3.50;;
50086;SDS011;35967;50.718;7.050;2024-02-21T08:19:39;16.70;;;2.60;;
50086;SDS011;35967;50.718;7.050;2024-02-21T08:29:43;10.97;;;2.40;;
50086;SDS011;35967;50.718;7.050;2024-02-21T08:39:49;21.23;;;3.97;;
50086;SDS011;35967;50.718;7.050;2024-02-21T08:49:53;15.53;;;4.13;;
50086;SDS011;35967;50.718;7.050;2024-02-21T08:59:57;15.77;;;2.90;;
50086;SDS011;35967;50.718;7.050;2024-02-21T09:10:01;15.20;;;3.60;;
50086;SDS011;35967;50.718;7.050;2024-02-21T09:20:06;11.60;;;2.20;;
50086;SDS011;35967;50.718;7.050;2024-02-21T09:30:15;17.33;;;3.07;;
50086;SDS011;35967;50.718;7.050;2024-02-21T09:40:19;16.20;;;2.37;;
50086;SDS011;35967;50.718;7.050;2024-02-21T09:50:24;13.53;;;2.53;;
50086;SDS011;35967;50.718;7.050;2024-02-21T10:00:28;13.33;;;2.53;;
50086;SDS011;35967;50.718;7.050;2024-02-21T10:10:41;15.10;;;3.33;;
50086;SDS011;35967;50.718;7.050;2024-02-21T10:20:45;15.33;;;2.53;;
50086;SDS011;35967;50.718;7.050;2024-02-21T10:30:51;9.53;;;2.03;;
50086;SDS011;35967;50.718;7.050;2024-02-21T10:40:54;8.77;;;1.70;;
50086;SDS011;35967;50.718;7.050;2024-02-21T10:51:01;7.23;;;1.77;;
50086;SDS011;35967;50.718;7.050;2024-02-21T11:01:07;11.20;;;1.83;;
50086;SDS011;35967;50.718;7.050;2024-02-21T11:11:13;8.43;;;1.60;;
50086;SDS011;35967;50.718;7.050;2024-02-21T11:21:34;9.77;;;1.40;;
50086;SDS011;35967;50.718;7.050;2024-02-21T11:31:40;14.80;;;1.67;;
50086;SDS011;35967;50.718;7.050;2024-02-21T11:41:44;11.50;;;2.57;;
50086;SDS011;35967;50.718;7.050;2024-02-21T11:51:49;16.63;;;5.63;;
50086;SDS011;35967;50.718;7.050;2024-02-21T12:02:00;6.67;;;1.63;;
50086;SDS011;35967;50.718;7.050;2024-02-21T12:12:07;5.67;;;1.60;;
50086;SDS011;35967;50.718;7.050;2024-02-21T12:22:15;13.00;;;2.07;;
50086;SDS011;35967;50.718;7.050;2024-02-21T12:43:22;8.03;;;1.70;;
50086;SDS011;35967;50.718;7.050;2024-02-21T12:53:41;8.07;;;1.83;;
50086;SDS011;35967;50.718;7.050;2024-02-21T13:04:06;7.73;;;2.00;;
50086;SDS011;35967;50.718;7.050;2024-02-21T13:14:43;6.97;;;1.53;;
50086;SDS011;35967;50.718;7.050;2024-02-21T13:35:55;15.53;;;1.63;;
50086;SDS011;35967;50.718;7.050;2024-02-21T13:56:24;7.40;;;1.40;;
50086;SDS011;35967;50.718;7.050;2024-02-21T14:06:53;10.23;;;1.77;;
50086;SDS011;35967;50.718;7.050;2024-02-21T14:17:20;10.73;;;2.70;;
50086;SDS011;35967;50.718;7.050;2024-02-21T14:27:32;5.53;;;1.20;;
50086;SDS011;35967;50.718;7.050;2024-02-21T14:37:42;10.57;;;1.60;;
50086;SDS011;35967;50.718;7.050;2024-02-21T14:47:50;6.63;;;1.20;;
50086;SDS011;35967;50.718;7.050;2024-02-21T14:58:05;7.73;;;1.27;;
50086;SDS011;35967;50.718;7.050;2024-02-21T15:08:16;9.10;;;2.00;;
50086;SDS011;35967;50.718;7.050;2024-02-21T15:18:24;11.57;;;1.50;;
50086;SDS011;35967;50.718;7.050;2024-02-21T15:28:32;6.17;;;1.40;;
50086;SDS011;35967;50.718;7.050;2024-02-21T15:38:42;5.03;;;1.07;;
50086;SDS011;35967;50.718;7.050;2024-02-21T15:48:55;8.40;;;2.03;;
50086;SDS011;35967;50.718;7.050;2024-02-21T15:59:05;9.30;;;1.30;;
50086;SDS011;35967;50.718;7.050;2024-02-21T16:09:12;8.87;;;1.57;;
50086;SDS011;35967;50.718;7.050;2024-02-21T16:19:17;7.30;;;1.27;;
50086;SDS011;35967;50.718;7.050;2024-02-21T16:29:35;9.50;;;1.30;;
50086;SDS011;35967;50.718;7.050;2024-02-21T16:39:50;7.50;;;1.40;;
50086;SDS011;35967;50.718;7.050;2024-02-21T16:49:57;7.33;;;1.40;;
50086;SDS011;35967;50.718;7.050;2024-02-21T17:00:14;6.00;;;1.37;;
50086;SDS011;35967;50.718;7.050;2024-02-21T17:11:03;10.60;;;1.57;;
50086;SDS011;35967;50.718;7.050;2024-02-21T17:21:13;6.50;;;1.27;;
50086;SDS011;35967;50.718;7.050;2024-02-21T17:31:26;5.77;;;1.33;;
50086;SDS011;35967;50.718;7.050;2024-02-21T17:41:32;8.10;;;1.43;;
50086;SDS011;35967;50.718;7.050;2024-02-21T17:51:53;5.93;;;1.30;;
50086;SDS011;35967;50.718;7.050;2024-02-21T18:02:04;3.70;;;1.30;;
50086;SDS011;35967;50.718;7.050;2024-02-21T18:12:52;6.47;;;1.20;;
50086;SDS011;35967;50.718;7.050;2024-02-21T18:24:08;9.13;;;1.70;;
50086;SDS011;35967;50.718;7.050;2024-02-21T18:34:25;6.00;;;1.50;;
50086;SDS011;35967;50.718;7.050;2024-02-21T18:44:37;9.23;;;1.67;;
50086;SDS011;35967;50.718;7.050;2024-02-21T18:55:03;4.73;;;1.40;;
50086;SDS011;35967;50.718;7.050;2024-02-21T19:05:17;8.57;;;2.50;;
50086;SDS011;35967;50.718;7.050;2024-02-21T19:15:28;8.87;;;1.60;;
50086;SDS011;35967;50.718;7.050;2024-02-21T19:25:36;8.47;;;1.90;;
50086;SDS011;35967;50.718;7.050;2024-02-21T19:35:54;7.57;;;2.00;;
50086;SDS011;35967;50.718;7.050;2024-02-21T19:46:00;9.87;;;2.40;;
50086;SDS011;35967;50.718;7.050;2024-02-21T19:56:07;7.87;;;2.30;;
50086;SDS011;35967;50.718;7.050;2024-02-21T20:06:16;11.57;;;2.00;;
50086;SDS011;35967;50.718;7.050;2024-02-21T20:16:40;7.63;;;2.50;;
50086;SDS011;35967;50.718;7.050;2024-02-21T20:27:08;8.10;;;1.87;;
50086;SDS011;35967;50.718;7.050;2024-02-21T20:37:14;5.63;;;2.03;;
50086;SDS011;35967;50.718;7.050;2024-02-21T20:47:20;9.73;;;2.40;;
50086;SDS011;35967;50.718;7.050;2024-02-21T20:57:29;5.37;;;2.20;;
50086;SDS011;35967;50.718;7.050;2024-02-21T21:07:33;8.70;;;2.07;;
50086;SDS011;35967;50.718;7.050;2024-02-21T21:17:38;3.63;;;1.43;;
50086;SDS011;35967;50.718;7.050;2024-02-21T21:27:42;4.03;;;1.40;;
50086;SDS011;35967;50.718;7.050;2024-02-21T21:37:48;7.20;;;2.03;;
50086;SDS011;35967;50.718;7.050;2024-02-21T21:47:51;5.10;;;1.60;;
50086;SDS011;35967;50.718;7.050;2024-02-21T21:57:56;3.00;;;1.30;;
50086;SDS011;35967;50.718;7.050;2024-02-21T22:08:01;4.47;;;1.20;;
50086;SDS011;35967;50.718;7.050;2024-02-21T22:18:08;2.63;;;1.20;;
50086;SDS011;35967;50.718;7.050;2024-02-21T22:28:12;3.90;;;0.90;;
50086;SDS011;35967;50.718;7.050;2024-02-21T22:38:17;2.47;;;0.80;;
50086;SDS011;35967;50.718;7.050;2024-02-21T22:48:20;3.97;;;1.00;;
50086;SDS011;35967;50.718;7.050;2024-02-21T22:58:25;5.23;;;0.90;;
50086;SDS011;35967;50.718;7.050;2024-02-21T23:08:28;3.03;;;0.70;;
50086;SDS011;35967;50.718;7.050;2024-02-21T23:18:33;0.80;;;0.57;;
50086;SDS011;35967;50.718;7.050;2024-02-21T23:28:40;1.30;;;0.40;;
50086;SDS011;35967;50.718;7.050;2024-02-21T23:38:45;0.70;;;0.37;;
50086;SDS011;35967;50.718;7.050;2024-02-21T23:48:48;1.07;;;0.43;;
50086;SDS011;35967;50.718;7.050;2024-02-21T23:58:54;6.00;;;0.50;;
